KPUW

Pullman / Moscow Regional Airport

Pullman/Moscow, Washington, USA
KPUW 251720Z 2518/2618 09006KT P6SM SKC FM252000 29007KT P6SM SKC FM261000 08005KT P6SM SKC FM261500 10011KT P6SM SKC
Issued Valid From Valid To
Apr-25 @ 17:20 UTC
(54 minutes ago)
Apr-25 @ 18:00 UTC
(14 minutes ago)
Apr-26 @ 18:00 UTC
(in 24 hours)
Apr-25 @ 18:00 to Apr-25 @ 20:00
KPUW 251720Z 2518/2618 09006KT P6SM SKC
Wind Visibility Clouds
90° at 6 knots Greater than 6 miles
  • Clear skies
From Apr-25 @ 20:00 to Apr-26 @ 10:00
FM252000 29007KT P6SM SKC
Wind Visibility Clouds
290° at 7 knots Greater than 6 miles
  • Clear skies
From Apr-26 @ 10:00 to Apr-26 @ 15:00
FM261000 08005KT P6SM SKC
Wind Visibility Clouds
80° at 5 knots Greater than 6 miles
  • Clear skies
From Apr-26 @ 15:00 to Apr-26 @ 18:00
FM261500 10011KT P6SM SKC
Wind Visibility Clouds
100° at 11 knots Greater than 6 miles
  • Clear skies
KPUW 251720Z 2518/2618 09006KT P6SM SKC FM252000 29007KT P6SM SKC FM261000 08005KT P6SM SKC FM261500 10011KT P6SM SKC
Issued Apr-25 @ 17:20 UTC
(54 minutes ago)
Valid From Apr-25 @ 18:00 UTC
(14 minutes ago)
Valid To Apr-26 @ 18:00 UTC
(in 24 hours)
Apr-25 @ 18:00 - Apr-25 @ 20:00
Wind Visibility
90° at 6 knots Greater than 6 miles
Clouds
  • Clear skies
From Apr-25 @ 20:00 - Apr-26 @ 10:00
Wind Visibility
290° at 7 knots Greater than 6 miles
Clouds
  • Clear skies
From Apr-26 @ 10:00 - Apr-26 @ 15:00
Wind Visibility
80° at 5 knots Greater than 6 miles
Clouds
  • Clear skies
From Apr-26 @ 15:00 - Apr-26 @ 18:00
Wind Visibility
100° at 11 knots Greater than 6 miles
Clouds
  • Clear skies